Time;durP1;ratioP1;P1;durP2;ratioP2;P2;SDS_P1;SDS_P2;PMS_P1;PMS_P2;Temp;Humidity;BMP_temperature;BMP_pressure;BME280_temperature;BME280_humidity;BME280_pressure;Samples;Min_cycle;Max_cycle;Signal;HPM_P1;HPM_P2
2021/11/06 00:00:09;;;;;;;20.88;13.40;;;6.40;99.90;;;;;;2080546;28;20045;-70
2021/11/06 00:01:13;;;;;;;23.88;14.18;;;6.40;99.90;;;;;;2071573;28;20483;-70
2021/11/06 00:02:13;;;;;;;21.92;13.68;;;6.40;99.90;;;;;;2071738;28;20026;-69
2021/11/06 00:03:14;;;;;;;23.48;13.55;;;6.40;99.90;;;;;;2080499;28;20101;-69
2021/11/06 00:04:14;;;;;;;23.38;14.20;;;6.40;99.90;;;;;;2071377;28;20133;-70
2021/11/06 00:05:16;;;;;;;24.27;14.20;;;6.40;99.90;;;;;;2071557;28;20037;-70
2021/11/06 00:06:17;;;;;;;23.23;13.65;;;6.40;99.90;;;;;;2072000;28;20136;-70
2021/11/06 00:07:18;;;;;;;21.77;13.30;;;6.40;99.90;;;;;;2080759;28;20529;-70
2021/11/06 00:08:18;;;;;;;20.50;12.77;;;6.40;99.90;;;;;;2080813;28;20021;-70
2021/11/06 00:09:19;;;;;;;21.95;13.25;;;6.30;99.90;;;;;;2080683;28;20037;-70
2021/11/06 00:10:20;;;;;;;22.40;13.82;;;6.30;99.90;;;;;;2071757;28;20101;-70
2021/11/06 00:11:20;;;;;;;21.65;13.57;;;6.30;99.90;;;;;;2071093;28;20492;-70
2021/11/06 00:12:21;;;;;;;23.23;13.57;;;6.30;99.90;;;;;;2080356;28;20041;-69
2021/11/06 00:13:22;;;;;;;24.30;14.65;;;6.30;99.90;;;;;;2080341;28;20485;-69
2021/11/06 00:14:22;;;;;;;25.52;14.82;;;6.30;99.90;;;;;;2079890;28;20435;-69
2021/11/06 00:15:23;;;;;;;22.40;13.85;;;6.30;99.90;;;;;;2080223;28;20018;-69
2021/11/06 00:16:24;;;;;;;24.23;14.75;;;6.30;99.90;;;;;;2080332;28;20080;-69
2021/11/06 00:17:25;;;;;;;24.20;14.50;;;6.30;99.90;;;;;;2071620;28;20382;-69
2021/11/06 00:18:25;;;;;;;24.48;13.88;;;6.30;99.90;;;;;;2071768;28;20024;-69
2021/11/06 00:19:26;;;;;;;23.65;14.30;;;6.30;99.90;;;;;;2080480;28;20117;-69
2021/11/06 00:20:27;;;;;;;21.27;13.80;;;6.30;99.90;;;;;;2080631;28;20071;-70
2021/11/06 00:21:28;;;;;;;20.40;13.18;;;6.30;99.90;;;;;;2080214;28;20075;-70
2021/11/06 00:22:29;;;;;;;21.05;13.25;;;6.30;99.90;;;;;;2080530;28;20501;-69
2021/11/06 00:23:30;;;;;;;22.25;13.90;;;6.30;99.90;;;;;;2080451;28;20048;-69
2021/11/06 00:24:30;;;;;;;26.08;14.15;;;6.30;99.90;;;;;;2080038;28;20033;-70
2021/11/06 00:25:31;;;;;;;24.10;14.73;;;6.30;99.90;;;;;;2071727;28;20536;-69
2021/11/06 00:26:32;;;;;;;24.60;14.43;;;6.30;99.90;;;;;;2071618;28;20034;-70
2021/11/06 00:27:33;;;;;;;23.45;14.05;;;6.30;99.90;;;;;;2071739;28;20458;-70
2021/11/06 00:28:33;;;;;;;23.92;13.75;;;6.30;99.90;;;;;;2071560;28;20080;-70
2021/11/06 00:29:34;;;;;;;21.00;13.18;;;6.30;99.90;;;;;;2079882;28;20171;-70
2021/11/06 00:30:35;;;;;;;21.95;13.52;;;6.30;99.90;;;;;;2088001;28;20188;-70
2021/11/06 00:31:36;;;;;;;23.20;13.82;;;6.30;99.90;;;;;;2071058;28;20038;-69
2021/11/06 00:32:37;;;;;;;23.40;14.10;;;6.30;99.90;;;;;;2071642;28;20029;-69
2021/11/06 00:33:38;;;;;;;21.23;12.65;;;6.30;99.90;;;;;;2080333;28;20040;-74
2021/11/06 00:34:38;;;;;;;21.10;12.63;;;6.30;99.90;;;;;;2070847;28;20018;-72
2021/11/06 00:35:39;;;;;;;20.42;12.80;;;6.20;99.90;;;;;;2071440;28;20026;-71
2021/11/06 00:36:40;;;;;;;19.95;12.23;;;6.20;99.90;;;;;;2080088;28;20165;-71
2021/11/06 00:37:42;;;;;;;20.73;12.60;;;6.20;99.90;;;;;;2071466;28;20121;-70
2021/11/06 00:38:43;;;;;;;20.77;12.60;;;6.20;99.90;;;;;;2071719;28;20038;-71
2021/11/06 00:39:43;;;;;;;23.05;13.20;;;6.20;99.90;;;;;;2087932;28;20032;-70
2021/11/06 00:40:44;;;;;;;19.50;12.82;;;6.20;99.90;;;;;;2079764;28;20041;-70
2021/11/06 00:41:45;;;;;;;19.73;12.73;;;6.10;99.90;;;;;;2063140;28;20148;-69
2021/11/06 00:42:45;;;;;;;19.08;12.05;;;6.10;99.90;;;;;;2071643;28;20139;-71
2021/11/06 00:43:46;;;;;;;20.52;12.52;;;6.10;99.90;;;;;;2063482;28;20034;-70
2021/11/06 00:44:47;;;;;;;20.80;13.43;;;6.10;99.90;;;;;;2071072;28;20505;-70
2021/11/06 00:45:48;;;;;;;22.00;12.63;;;6.20;99.90;;;;;;2080389;28;20033;-70
2021/11/06 00:46:49;;;;;;;22.58;13.90;;;6.20;99.90;;;;;;2080424;28;20037;-69
2021/11/06 00:47:50;;;;;;;21.90;13.90;;;6.20;99.90;;;;;;2080456;28;20040;-70
2021/11/06 00:48:51;;;;;;;22.15;13.05;;;6.20;99.90;;;;;;2071745;28;20057;-71
2021/11/06 00:49:52;;;;;;;19.23;12.80;;;6.20;99.90;;;;;;2063729;28;20035;-72
2021/11/06 00:50:52;;;;;;;21.45;13.27;;;6.30;99.90;;;;;;2071793;28;20537;-70
2021/11/06 00:51:53;;;;;;;20.77;12.65;;;6.30;99.90;;;;;;2071134;28;20081;-71
2021/11/06 00:52:54;;;;;;;19.48;12.82;;;6.30;99.90;;;;;;2071495;28;20397;-71
2021/11/06 00:53:55;;;;;;;20.30;12.20;;;6.30;99.90;;;;;;2088735;28;20031;-70
2021/11/06 00:54:55;;;;;;;20.52;12.13;;;6.40;99.90;;;;;;2088955;28;20028;-71
2021/11/06 00:55:56;;;;;;;19.15;11.57;;;6.40;99.90;;;;;;2073086;28;20486;-69
2021/11/06 00:56:56;;;;;;;18.38;11.60;;;6.40;99.90;;;;;;2072934;28;20117;-70
2021/11/06 00:57:57;;;;;;;19.67;11.95;;;6.50;99.90;;;;;;2072952;28;20489;-70
2021/11/06 00:58:58;;;;;;;19.38;11.82;;;6.50;99.90;;;;;;2081716;28;20039;-70
2021/11/06 00:59:59;;;;;;;19.98;12.32;;;6.50;99.90;;;;;;2081795;28;20053;-69
2021/11/06 01:00:59;;;;;;;18.13;11.55;;;6.60;99.90;;;;;;2081662;28;20022;-70
2021/11/06 01:02:00;;;;;;;19.95;12.00;;;6.60;99.90;;;;;;2081463;28;20033;-70
2021/11/06 01:03:01;;;;;;;21.23;12.32;;;6.60;99.90;;;;;;2081828;28;20109;-71
2021/11/06 01:04:01;;;;;;;20.60;11.82;;;6.70;99.90;;;;;;2073048;28;20022;-70
2021/11/06 01:05:05;;;;;;;20.88;12.63;;;6.70;99.90;;;;;;2072568;28;20623;-71
2021/11/06 01:06:05;;;;;;;18.75;11.90;;;6.70;99.90;;;;;;2081741;28;20041;-70
2021/11/06 01:07:06;;;;;;;19.50;11.50;;;6.80;99.90;;;;;;2081846;28;20021;-70
2021/11/06 01:08:07;;;;;;;19.65;11.93;;;6.80;99.90;;;;;;2081951;28;20095;-71
2021/11/06 01:09:07;;;;;;;17.45;11.43;;;6.80;99.90;;;;;;2081784;28;20140;-71
2021/11/06 01:10:11;;;;;;;21.80;12.10;;;6.90;99.90;;;;;;2081776;28;20175;-71
2021/11/06 01:11:12;;;;;;;19.10;11.95;;;6.90;99.90;;;;;;2081321;28;20029;-71
2021/11/06 01:12:12;;;;;;;21.27;12.68;;;6.90;99.90;;;;;;2072987;28;20398;-71
2021/11/06 01:13:14;;;;;;;21.42;12.45;;;7.00;99.90;;;;;;2073036;28;20088;-71
2021/11/06 01:14:15;;;;;;;19.23;11.73;;;7.00;99.90;;;;;;2072480;28;20032;-71
2021/11/06 01:15:16;;;;;;;20.98;11.80;;;7.00;99.90;;;;;;2073010;28;20071;-71
2021/11/06 01:16:17;;;;;;;20.25;11.38;;;7.10;99.90;;;;;;2081779;28;20037;-71
2021/11/06 01:17:18;;;;;;;19.65;11.32;;;7.10;99.90;;;;;;2081858;28;20033;-71
2021/11/06 01:18:18;;;;;;;20.77;11.88;;;7.10;99.90;;;;;;2081869;28;20080;-71
2021/11/06 01:19:19;;;;;;;17.15;10.82;;;7.20;99.90;;;;;;2081729;28;20025;-70
2021/11/06 01:20:20;;;;;;;20.02;11.88;;;7.20;99.90;;;;;;2073040;28;20382;-70
2021/11/06 01:21:20;;;;;;;18.90;11.55;;;7.20;99.90;;;;;;2072613;28;20069;-71
2021/11/06 01:22:21;;;;;;;20.05;11.75;;;7.20;99.90;;;;;;2073033;28;20109;-71
2021/11/06 01:23:22;;;;;;;21.25;11.00;;;7.30;99.90;;;;;;2082438;28;20026;-71
2021/11/06 01:24:22;;;;;;;19.80;11.32;;;7.30;99.90;;;;;;2082068;28;20480;-71
2021/11/06 01:25:23;;;;;;;18.38;10.90;;;7.40;99.90;;;;;;2082389;28;20022;-71
2021/11/06 01:26:24;;;;;;;17.48;10.80;;;7.40;99.90;;;;;;2074387;28;20161;-71
2021/11/06 01:27:24;;;;;;;19.88;10.85;;;7.40;99.90;;;;;;2073755;28;20064;-71
2021/11/06 01:28:25;;;;;;;16.98;10.27;;;7.40;99.90;;;;;;2082578;28;20092;-71
2021/11/06 01:29:26;;;;;;;18.80;11.02;;;7.40;99.90;;;;;;2082487;28;20040;-72
2021/11/06 01:30:26;;;;;;;19.75;11.18;;;7.40;99.90;;;;;;2082474;28;20091;-71
2021/11/06 01:31:28;;;;;;;17.45;10.23;;;7.40;99.90;;;;;;2090300;28;20091;-71
2021/11/06 01:32:29;;;;;;;17.15;10.75;;;7.40;99.90;;;;;;2090668;28;20058;-73
2021/11/06 01:33:29;;;;;;;17.42;10.57;;;7.50;99.90;;;;;;2083663;28;20075;-72
2021/11/06 01:34:30;;;;;;;18.42;10.63;;;7.50;99.90;;;;;;2082602;28;20025;-71
2021/11/06 01:35:30;;;;;;;16.30;10.13;;;7.50;99.90;;;;;;2082858;28;20024;-71
2021/11/06 01:36:31;;;;;;;18.08;11.00;;;7.50;99.90;;;;;;2082564;28;20103;-71
2021/11/06 01:37:32;;;;;;;17.20;10.82;;;7.50;99.90;;;;;;2083195;28;20374;-72
2021/11/06 01:38:33;;;;;;;18.38;10.35;;;7.50;99.90;;;;;;2082775;28;20515;-71
2021/11/06 01:39:33;;;;;;;20.02;11.27;;;7.50;99.90;;;;;;2072672;28;20026;-71
2021/11/06 01:40:34;;;;;;;18.85;10.73;;;7.50;99.90;;;;;;2072736;28;20725;-72
2021/11/06 01:41:36;;;;;;;18.90;10.98;;;7.50;99.90;;;;;;2072466;28;20033;-72
2021/11/06 01:42:38;;;;;;;17.85;10.27;;;7.50;99.90;;;;;;2072816;28;20038;-71
2021/11/06 01:43:40;;;;;;;17.25;10.40;;;7.50;99.90;;;;;;2073252;28;20413;-74
2021/11/06 01:44:40;;;;;;;19.10;10.85;;;7.50;99.90;;;;;;2072619;28;20061;-71
2021/11/06 01:45:41;;;;;;;17.15;10.27;;;7.50;99.90;;;;;;2072972;28;20409;-72
2021/11/06 01:46:42;;;;;;;17.75;10.70;;;7.50;99.90;;;;;;2081322;28;20033;-72
2021/11/06 01:47:43;;;;;;;16.75;10.50;;;7.50;99.90;;;;;;2089822;28;20185;-72
2021/11/06 01:48:44;;;;;;;18.60;10.10;;;7.50;99.90;;;;;;2081961;28;20108;-72
2021/11/06 01:49:44;;;;;;;16.98;10.18;;;7.50;99.90;;;;;;2072862;28;20030;-72
2021/11/06 01:50:45;;;;;;;14.18;9.35;;;7.50;99.90;;;;;;2080999;28;20865;-72
2021/11/06 01:51:47;;;;;;;17.20;9.88;;;7.50;99.90;;;;;;2072373;28;20065;-72
2021/11/06 01:52:48;;;;;;;14.90;9.13;;;7.50;99.90;;;;;;2064915;28;20081;-71
2021/11/06 01:53:49;;;;;;;18.13;10.20;;;7.60;99.90;;;;;;2072572;28;20037;-71
2021/11/06 01:54:49;;;;;;;16.63;9.60;;;7.50;99.90;;;;;;2072098;28;20042;-72
2021/11/06 01:55:53;;;;;;;16.00;9.85;;;7.60;99.90;;;;;;2072664;28;20033;-71
2021/11/06 01:56:54;;;;;;;17.35;10.02;;;7.60;99.90;;;;;;2072468;28;20022;-71
2021/11/06 01:57:56;;;;;;;18.13;10.18;;;7.60;99.90;;;;;;2072620;28;20414;-71
2021/11/06 01:58:56;;;;;;;16.17;10.18;;;7.60;99.90;;;;;;2081148;28;20077;-70
2021/11/06 01:59:57;;;;;;;15.52;9.32;;;7.60;99.90;;;;;;2081339;28;20103;-73
2021/11/06 02:00:58;;;;;;;14.02;9.20;;;7.60;99.90;;;;;;2081473;28;20531;-72
2021/11/06 02:02:00;;;;;;;16.10;9.50;;;7.70;99.90;;;;;;2081222;28;20083;-72
2021/11/06 02:03:00;;;;;;;13.60;8.88;;;7.70;99.90;;;;;;2072555;28;20509;-71
2021/11/06 02:04:02;;;;;;;12.70;8.45;;;7.70;99.90;;;;;;2072542;28;20030;-71
2021/11/06 02:05:03;;;;;;;13.02;8.80;;;7.70;99.90;;;;;;2080533;28;20037;-71
2021/11/06 02:06:04;;;;;;;13.77;8.82;;;7.70;99.90;;;;;;2081182;28;20109;-71
2021/11/06 02:07:04;;;;;;;12.70;7.90;;;7.70;99.90;;;;;;2081296;28;20049;-71
2021/11/06 02:08:05;;;;;;;12.07;8.20;;;7.70;99.90;;;;;;2081334;28;20575;-71
2021/11/06 02:09:06;;;;;;;12.13;7.93;;;7.80;99.90;;;;;;2081402;28;20095;-73
2021/11/06 02:10:09;;;;;;;12.27;8.10;;;7.70;99.90;;;;;;2081357;28;20030;-71
2021/11/06 02:11:10;;;;;;;12.50;8.52;;;7.80;99.90;;;;;;2080940;28;20041;-72
2021/11/06 02:12:11;;;;;;;12.38;7.60;;;7.80;99.90;;;;;;2081167;28;20025;-71
2021/11/06 02:13:12;;;;;;;13.07;8.13;;;7.80;99.90;;;;;;2072617;28;20030;-71
2021/11/06 02:14:13;;;;;;;14.27;8.82;;;7.80;99.90;;;;;;2072662;28;20026;-73
2021/11/06 02:15:17;;;;;;;15.02;8.60;;;7.80;99.90;;;;;;2081321;28;20485;-72
2021/11/06 02:16:17;;;;;;;16.35;9.65;;;7.80;99.90;;;;;;2072419;28;20048;-71
2021/11/06 02:17:18;;;;;;;16.05;9.23;;;7.80;99.90;;;;;;2072476;28;20029;-71
2021/11/06 02:18:19;;;;;;;15.23;9.18;;;7.80;99.90;;;;;;2072530;28;20095;-72
2021/11/06 02:19:30;;;;;;;16.48;9.43;;;7.90;99.90;;;;;;2072435;28;20030;-71
2021/11/06 02:20:30;;;;;;;15.30;9.10;;;7.90;99.90;;;;;;2073952;28;20097;-71
2021/11/06 02:21:34;;;;;;;15.10;9.05;;;7.90;99.90;;;;;;2081062;28;20044;-71
2021/11/06 02:22:35;;;;;;;16.52;9.30;;;7.90;99.90;;;;;;2072361;28;20144;-71
2021/11/06 02:23:41;;;;;;;15.02;9.35;;;8.00;99.90;;;;;;2072296;28;20026;-71
2021/11/06 02:24:41;;;;;;;13.50;8.63;;;8.00;99.90;;;;;;2072800;28;20497;-71
2021/11/06 02:25:42;;;;;;;16.55;9.73;;;8.00;99.90;;;;;;2072526;28;20061;-71
2021/11/06 02:26:43;;;;;;;15.13;8.85;;;8.00;99.90;;;;;;2072352;28;20034;-71
2021/11/06 02:27:44;;;;;;;14.25;9.00;;;8.00;99.90;;;;;;2081191;28;20037;-72
2021/11/06 02:28:48;;;;;;;13.38;9.10;;;8.00;99.90;;;;;;2072347;28;20531;-71
2021/11/06 02:29:49;;;;;;;15.65;8.75;;;8.00;99.90;;;;;;2072804;28;20124;-72
2021/11/06 02:30:49;;;;;;;18.33;8.98;;;8.00;99.90;;;;;;2081064;28;20033;-72
2021/11/06 02:31:50;;;;;;;14.85;9.25;;;8.00;99.90;;;;;;2080947;28;20521;-72
2021/11/06 02:32:52;;;;;;;15.45;8.75;;;8.10;99.90;;;;;;2081048;28;20034;-71
2021/11/06 02:33:54;;;;;;;16.75;8.85;;;8.10;99.90;;;;;;2072324;28;20210;-72
2021/11/06 02:34:54;;;;;;;15.25;9.00;;;8.10;99.90;;;;;;2071704;28;20038;-73
2021/11/06 02:35:55;;;;;;;15.70;9.27;;;8.10;99.90;;;;;;2081122;28;20029;-72
2021/11/06 02:36:56;;;;;;;16.73;9.30;;;8.10;99.90;;;;;;2081193;28;20095;-71
2021/11/06 02:37:56;;;;;;;17.02;9.43;;;8.10;99.90;;;;;;2081281;28;20061;-71
2021/11/06 02:38:57;;;;;;;15.73;8.75;;;8.10;99.90;;;;;;2081228;28;20065;-71
2021/11/06 02:39:58;;;;;;;16.08;9.35;;;8.10;99.90;;;;;;2072332;28;20072;-71
2021/11/06 02:40:59;;;;;;;17.40;9.32;;;8.10;99.90;;;;;;2072574;28;20037;-73
2021/11/06 02:42:03;;;;;;;14.88;8.88;;;8.10;99.90;;;;;;2080992;28;20484;-72
2021/11/06 02:43:05;;;;;;;13.10;8.70;;;8.10;99.90;;;;;;2081197;28;20025;-72
2021/11/06 02:44:10;;;;;;;15.15;9.45;;;8.10;99.90;;;;;;2081154;28;20033;-72
2021/11/06 02:45:12;;;;;;;14.25;8.52;;;8.10;99.90;;;;;;2071940;28;20046;-73
2021/11/06 02:46:13;;;;;;;14.05;9.00;;;8.10;99.90;;;;;;2072322;28;20022;-73
2021/11/06 02:47:14;;;;;;;15.93;8.93;;;8.10;99.90;;;;;;2081051;28;20033;-72
2021/11/06 02:48:14;;;;;;;16.80;9.73;;;8.10;99.90;;;;;;2072475;28;20076;-72
2021/11/06 02:49:15;;;;;;;16.05;9.48;;;8.10;99.90;;;;;;2072580;28;20787;-72
2021/11/06 02:50:16;;;;;;;14.45;9.07;;;8.10;99.90;;;;;;2072759;28;20112;-72
2021/11/06 02:51:17;;;;;;;13.93;8.82;;;8.10;99.90;;;;;;2072330;28;20113;-72
2021/11/06 02:52:17;;;;;;;14.93;9.50;;;8.10;99.90;;;;;;2081515;28;20025;-72
2021/11/06 02:53:18;;;;;;;16.45;9.05;;;8.10;99.90;;;;;;2072613;28;20596;-72
2021/11/06 02:54:19;;;;;;;15.80;9.10;;;8.10;99.90;;;;;;2072120;28;20032;-72
2021/11/06 02:55:20;;;;;;;14.02;8.45;;;8.10;99.90;;;;;;2081263;28;20025;-72
2021/11/06 02:56:24;;;;;;;14.68;9.68;;;8.10;99.90;;;;;;2080950;28;20402;-72
2021/11/06 02:57:24;;;;;;;17.65;9.82;;;8.10;99.90;;;;;;2081163;28;20101;-72
2021/11/06 02:58:25;;;;;;;13.73;9.23;;;8.20;99.90;;;;;;2072177;28;20095;-72
2021/11/06 02:59:26;;;;;;;15.98;9.38;;;8.10;99.90;;;;;;2072115;28;20433;-70
2021/11/06 03:00:27;;;;;;;16.50;9.18;;;8.10;99.90;;;;;;2072237;28;20080;-71
2021/11/06 03:01:28;;;;;;;16.40;9.32;;;8.20;99.90;;;;;;2071754;28;20030;-71
2021/11/06 03:02:28;;;;;;;15.73;9.10;;;8.10;99.90;;;;;;2072209;28;20038;-70
2021/11/06 03:03:29;;;;;;;15.00;9.50;;;8.10;99.90;;;;;;2080870;28;20055;-71
2021/11/06 03:04:35;;;;;;;16.85;9.32;;;8.10;99.90;;;;;;2080453;28;20017;-70
2021/11/06 03:05:36;;;;;;;15.10;9.18;;;8.10;99.90;;;;;;2080803;28;20516;-70
2021/11/06 03:06:37;;;;;;;14.27;8.38;;;8.10;99.90;;;;;;2080772;28;20035;-70
2021/11/06 03:07:38;;;;;;;15.05;8.50;;;8.10;99.90;;;;;;2080895;28;20040;-70
2021/11/06 03:08:38;;;;;;;15.07;9.15;;;8.10;99.90;;;;;;2080960;28;20482;-71
2021/11/06 03:09:39;;;;;;;14.98;9.52;;;8.10;99.90;;;;;;2081105;28;20021;-70
2021/11/06 03:10:40;;;;;;;15.27;9.10;;;8.10;99.90;;;;;;2072068;28;20553;-70
2021/11/06 03:11:41;;;;;;;14.68;9.07;;;8.10;99.90;;;;;;2071612;28;20120;-70
2021/11/06 03:12:43;;;;;;;16.83;9.45;;;8.10;99.90;;;;;;2071979;28;20075;-70
2021/11/06 03:13:45;;;;;;;16.75;9.23;;;8.10;99.90;;;;;;2080432;28;20037;-71
2021/11/06 03:14:47;;;;;;;14.18;8.90;;;8.10;99.90;;;;;;2087882;28;20028;-70
2021/11/06 03:15:47;;;;;;;13.85;8.98;;;8.10;99.90;;;;;;2071844;28;20121;-70
2021/11/06 03:16:48;;;;;;;13.60;8.70;;;8.10;99.90;;;;;;2071423;28;20038;-70
2021/11/06 03:17:48;;;;;;;14.93;9.32;;;8.10;99.90;;;;;;2071915;28;20049;-70
2021/11/06 03:18:49;;;;;;;13.00;8.43;;;8.10;99.90;;;;;;2072018;28;20030;-71
2021/11/06 03:19:50;;;;;;;13.18;8.50;;;8.10;99.90;;;;;;2072175;28;20022;-71
2021/11/06 03:20:51;;;;;;;11.75;8.05;;;8.10;99.90;;;;;;2072152;28;20069;-71
2021/11/06 03:21:51;;;;;;;12.30;8.18;;;8.10;99.90;;;;;;2080827;28;20026;-73
2021/11/06 03:22:57;;;;;;;12.20;7.70;;;8.10;99.90;;;;;;2080958;28;20120;-71
2021/11/06 03:23:58;;;;;;;12.50;7.93;;;8.10;99.90;;;;;;2080798;28;20037;-71
2021/11/06 03:25:02;;;;;;;11.85;8.15;;;8.10;99.90;;;;;;2071375;28;20120;-71
2021/11/06 03:26:02;;;;;;;11.85;8.00;;;8.10;99.90;;;;;;2064225;28;20584;-71
2021/11/06 03:27:05;;;;;;;11.57;8.10;;;8.10;99.90;;;;;;2071985;28;20042;-71
2021/11/06 03:28:06;;;;;;;13.95;8.50;;;8.10;99.90;;;;;;2080859;28;20474;-71
2021/11/06 03:29:07;;;;;;;14.48;8.68;;;8.10;99.90;;;;;;2080756;28;20440;-71
2021/11/06 03:30:10;;;;;;;13.43;8.85;;;8.10;99.90;;;;;;2071929;28;20037;-71
2021/11/06 03:31:11;;;;;;;13.15;8.35;;;8.10;99.90;;;;;;2071667;28;20045;-71
2021/11/06 03:32:11;;;;;;;11.90;8.20;;;8.10;99.90;;;;;;2063721;28;20045;-71
2021/11/06 03:33:12;;;;;;;13.20;8.52;;;8.10;99.90;;;;;;2072055;28;20116;-71
2021/11/06 03:34:13;;;;;;;12.10;7.90;;;8.10;99.90;;;;;;2072083;28;20502;-71
2021/11/06 03:35:14;;;;;;;14.23;9.23;;;8.10;99.90;;;;;;2072068;28;20096;-71
2021/11/06 03:36:15;;;;;;;16.02;8.98;;;8.10;99.90;;;;;;2080761;28;20022;-71
2021/11/06 03:37:15;;;;;;;13.57;8.90;;;8.10;99.90;;;;;;2081086;28;20033;-71
2021/11/06 03:38:16;;;;;;;14.00;9.18;;;8.10;99.90;;;;;;2080868;28;20444;-71
2021/11/06 03:39:17;;;;;;;13.45;9.13;;;8.10;99.90;;;;;;2071917;28;20057;-71
2021/11/06 03:40:19;;;;;;;15.30;9.43;;;8.20;99.90;;;;;;2071993;28;20049;-71
2021/11/06 03:41:20;;;;;;;16.20;9.27;;;8.20;99.90;;;;;;2071659;28;20120;-71
2021/11/06 03:42:20;;;;;;;16.60;9.98;;;8.20;99.90;;;;;;2071755;28;20030;-71
2021/11/06 03:43:21;;;;;;;14.85;9.45;;;8.10;99.90;;;;;;2071846;28;20029;-71
2021/11/06 03:44:21;;;;;;;16.73;9.73;;;8.10;99.90;;;;;;2071477;28;20037;-71
2021/11/06 03:45:22;;;;;;;17.10;10.02;;;8.20;99.90;;;;;;2071711;28;20057;-71
2021/11/06 03:46:23;;;;;;;16.85;9.73;;;8.20;99.90;;;;;;2071895;28;20018;-71
2021/11/06 03:47:24;;;;;;;14.88;9.93;;;8.20;99.90;;;;;;2080623;28;20032;-70
2021/11/06 03:48:24;;;;;;;17.77;10.00;;;8.20;99.90;;;;;;2080612;28;20028;-71
2021/11/06 03:49:25;;;;;;;17.20;10.15;;;8.10;99.90;;;;;;2080563;28;20596;-71
2021/11/06 03:50:26;;;;;;;17.63;10.38;;;8.20;99.90;;;;;;2080760;28;20358;-71
2021/11/06 03:51:27;;;;;;;17.60;10.68;;;8.10;99.90;;;;;;2071516;28;20405;-71
2021/11/06 03:52:28;;;;;;;15.23;9.85;;;8.10;99.90;;;;;;2071496;28;20163;-71
2021/11/06 03:53:28;;;;;;;17.23;10.57;;;8.10;99.90;;;;;;2071621;28;20026;-72
2021/11/06 03:54:29;;;;;;;15.63;10.43;;;8.10;99.90;;;;;;2071555;28;20033;-73
2021/11/06 03:55:30;;;;;;;17.75;10.82;;;8.10;99.90;;;;;;2071962;28;20113;-71
2021/11/06 03:56:30;;;;;;;17.13;10.50;;;8.10;99.90;;;;;;2071798;28;20501;-71
2021/11/06 03:57:31;;;;;;;16.02;10.02;;;8.10;99.90;;;;;;2071754;28;20038;-71
2021/11/06 03:58:32;;;;;;;17.73;10.25;;;8.10;99.90;;;;;;2072109;28;20068;-71
2021/11/06 03:59:33;;;;;;;16.60;10.57;;;8.10;99.90;;;;;;2080681;28;20351;-71
2021/11/06 04:00:33;;;;;;;17.85;10.40;;;8.10;99.90;;;;;;2080723;28;20022;-71
2021/11/06 04:01:34;;;;;;;19.70;10.93;;;8.10;99.90;;;;;;2071751;28;20473;-71
2021/11/06 04:02:34;;;;;;;17.60;11.05;;;8.10;99.90;;;;;;2072122;28;20026;-72
2021/11/06 04:03:36;;;;;;;19.70;11.77;;;8.00;99.90;;;;;;2080714;28;20154;-71
2021/11/06 04:04:36;;;;;;;16.92;11.30;;;8.10;99.90;;;;;;2080558;28;20053;-72
2021/11/06 04:05:37;;;;;;;20.05;12.07;;;8.00;99.90;;;;;;2071839;28;20034;-72
2021/11/06 04:06:38;;;;;;;19.95;11.60;;;8.00;99.90;;;;;;2071916;28;20069;-71
2021/11/06 04:07:39;;;;;;;17.17;10.93;;;8.00;99.90;;;;;;2071952;28;20033;-71
2021/11/06 04:08:40;;;;;;;18.90;11.02;;;8.00;99.90;;;;;;2080744;28;20029;-71
2021/11/06 04:09:40;;;;;;;20.63;12.02;;;8.00;99.90;;;;;;2081398;28;20022;-72
2021/11/06 04:10:41;;;;;;;18.90;12.10;;;8.10;99.90;;;;;;2089522;28;20129;-73
2021/11/06 04:11:42;;;;;;;19.02;11.48;;;8.00;99.90;;;;;;2088326;28;20063;-71
2021/11/06 04:12:44;;;;;;;18.30;11.52;;;8.00;99.90;;;;;;2072041;28;20030;-73
2021/11/06 04:13:45;;;;;;;18.48;11.43;;;8.00;99.90;;;;;;2073016;28;20014;-73
2021/11/06 04:14:46;;;;;;;19.38;12.00;;;8.00;99.90;;;;;;2071896;28;20505;-70
2021/11/06 04:15:47;;;;;;;16.83;10.82;;;8.10;99.90;;;;;;2073841;28;20073;-71
2021/11/06 04:16:47;;;;;;;17.50;11.30;;;8.00;99.90;;;;;;2082369;28;20079;-71
2021/11/06 04:17:48;;;;;;;16.85;10.82;;;8.00;99.90;;;;;;2073393;28;20053;-70
2021/11/06 04:18:49;;;;;;;19.42;11.73;;;8.00;99.90;;;;;;2064357;28;20034;-70
2021/11/06 04:19:49;;;;;;;17.80;11.07;;;8.00;99.90;;;;;;2071764;28;20033;-70
2021/11/06 04:20:50;;;;;;;18.60;10.98;;;8.00;99.90;;;;;;2081058;28;20029;-71
2021/11/06 04:21:50;;;;;;;18.23;11.73;;;8.00;99.90;;;;;;2072040;28;20045;-72
2021/11/06 04:22:51;;;;;;;17.10;11.00;;;8.00;99.90;;;;;;2072511;28;20034;-71
2021/11/06 04:23:52;;;;;;;19.48;11.35;;;8.00;99.90;;;;;;2080672;28;20044;-72
2021/11/06 04:24:52;;;;;;;18.38;11.23;;;8.00;99.90;;;;;;2079942;28;20029;-70
2021/11/06 04:25:53;;;;;;;17.75;11.13;;;8.00;99.90;;;;;;2088094;28;20033;-70
2021/11/06 04:26:54;;;;;;;18.65;11.48;;;8.00;99.90;;;;;;2088049;28;20036;-71
2021/11/06 04:27:54;;;;;;;18.30;11.80;;;8.00;99.90;;;;;;2081524;28;20033;-71
2021/11/06 04:28:55;;;;;;;18.33;11.23;;;8.00;99.90;;;;;;2082222;28;20060;-71
2021/11/06 04:29:56;;;;;;;17.60;11.27;;;8.00;99.90;;;;;;2073930;28;20049;-71
2021/11/06 04:30:56;;;;;;;20.65;11.25;;;7.90;99.90;;;;;;2073938;28;20034;-71
2021/11/06 04:31:57;;;;;;;19.67;11.55;;;7.90;99.90;;;;;;2073584;28;20120;-70
2021/11/06 04:32:57;;;;;;;19.60;11.40;;;7.80;99.90;;;;;;2074114;28;20030;-71
2021/11/06 04:34:00;;;;;;;17.85;11.35;;;7.80;99.90;;;;;;2075315;28;20080;-71
2021/11/06 04:35:01;;;;;;;19.05;11.38;;;7.80;99.90;;;;;;2076591;28;20401;-71
2021/11/06 04:36:02;;;;;;;19.48;11.43;;;7.80;99.90;;;;;;2069257;28;20030;-71
2021/11/06 04:37:03;;;;;;;17.30;10.85;;;7.70;99.90;;;;;;2078639;28;20065;-73
2021/11/06 04:38:04;;;;;;;16.83;11.13;;;7.70;99.90;;;;;;2080427;28;20045;-70
2021/11/06 04:39:04;;;;;;;15.98;10.45;;;7.60;99.90;;;;;;2075326;28;20058;-70
2021/11/06 04:40:08;;;;;;;16.92;10.50;;;7.60;99.90;;;;;;2073420;28;20486;-71
2021/11/06 04:41:09;;;;;;;17.15;10.93;;;7.50;99.90;;;;;;2082034;28;20041;-71
2021/11/06 04:42:10;;;;;;;20.58;11.50;;;7.50;99.90;;;;;;2081923;28;20030;-70
2021/11/06 04:43:10;;;;;;;19.52;11.45;;;7.50;99.90;;;;;;2082120;28;20033;-70
2021/11/06 04:44:11;;;;;;;19.02;11.52;;;7.50;99.90;;;;;;2072973;28;20104;-71
2021/11/06 04:45:12;;;;;;;17.10;11.63;;;7.40;99.90;;;;;;2072786;28;20529;-71
2021/11/06 04:46:13;;;;;;;16.80;10.82;;;7.40;99.90;;;;;;2073272;28;20474;-72
2021/11/06 04:47:14;;;;;;;19.50;11.32;;;7.40;99.90;;;;;;2082102;28;20025;-70
2021/11/06 04:48:14;;;;;;;17.98;11.27;;;7.30;99.90;;;;;;2081965;28;20041;-71
2021/11/06 04:49:15;;;;;;;16.60;10.57;;;7.30;99.90;;;;;;2073107;28;20037;-71
2021/11/06 04:50:16;;;;;;;17.00;10.98;;;7.30;99.90;;;;;;2073168;28;20030;-70
2021/11/06 04:51:16;;;;;;;19.27;11.70;;;7.20;99.90;;;;;;2072713;28;20706;-71
2021/11/06 04:52:17;;;;;;;22.48;12.23;;;7.20;99.90;;;;;;2073182;28;20468;-71
2021/11/06 04:53:18;;;;;;;20.40;11.82;;;7.20;99.90;;;;;;2081644;28;20029;-70
2021/11/06 04:54:19;;;;;;;19.98;11.57;;;7.20;99.90;;;;;;2081318;28;20504;-71
2021/11/06 04:55:20;;;;;;;16.42;10.75;;;7.20;99.90;;;;;;2081704;28;20109;-71
2021/11/06 04:56:21;;;;;;;14.95;10.35;;;7.10;99.90;;;;;;2081803;28;20509;-71
2021/11/06 04:57:22;;;;;;;16.25;9.95;;;7.10;99.90;;;;;;2081857;28;20477;-71
2021/11/06 04:58:22;;;;;;;15.25;10.07;;;7.10;99.90;;;;;;2081945;28;20041;-71
2021/11/06 04:59:23;;;;;;;16.42;10.55;;;7.10;99.90;;;;;;2081950;28;20037;-71
2021/11/06 05:00:23;;;;;;;16.98;11.20;;;7.00;99.90;;;;;;2081833;28;20104;-70
2021/11/06 05:01:24;;;;;;;16.65;10.55;;;7.00;99.90;;;;;;2073484;28;20462;-71
2021/11/06 05:02:24;;;;;;;18.08;10.88;;;7.00;99.90;;;;;;2073171;28;20034;-70
2021/11/06 05:03:25;;;;;;;19.67;12.23;;;7.00;99.90;;;;;;2081989;28;20021;-71
2021/11/06 05:04:26;;;;;;;16.63;11.38;;;7.00;99.90;;;;;;2081412;28;20025;-71
2021/11/06 05:05:26;;;;;;;18.48;11.32;;;7.00;99.90;;;;;;2081809;28;20166;-71
2021/11/06 05:06:30;;;;;;;18.38;10.95;;;6.90;99.90;;;;;;2072995;28;20592;-71
2021/11/06 05:07:31;;;;;;;15.95;10.75;;;6.90;99.90;;;;;;2073559;28;20049;-71
2021/11/06 05:08:31;;;;;;;15.63;10.57;;;6.90;99.90;;;;;;2081828;28;20029;-72
2021/11/06 05:09:33;;;;;;;16.83;10.77;;;6.90;99.90;;;;;;2081976;28;20029;-71
2021/11/06 05:10:34;;;;;;;22.15;12.80;;;6.80;99.90;;;;;;2081854;28;20547;-70
2021/11/06 05:11:35;;;;;;;26.45;15.38;;;6.80;99.90;;;;;;2081323;28;20087;-70
2021/11/06 05:12:36;;;;;;;24.90;14.23;;;6.90;99.90;;;;;;2072968;28;20041;-70
2021/11/06 05:13:36;;;;;;;22.50;13.70;;;6.90;99.90;;;;;;2072977;28;20114;-71
2021/11/06 05:14:37;;;;;;;22.17;13.88;;;6.90;99.90;;;;;;2072584;28;20034;-71